Time;durP1;ratioP1;P1;durP2;ratioP2;P2;SDS_P1;SDS_P2;PMS_P1;PMS_P2;Temp;Humidity;BMP_temperature;BMP_pressure;BME280_temperature;BME280_humidity;BME280_pressure;Samples;Min_cycle;Max_cycle;Signal;HPM_P1;HPM_P2
2020/12/18 03:47:52;;;;;;;162.82;48.63;;;7.60;80.30;;;;;;4885945;29;20514;-75
2020/12/18 03:50:18;;;;;;;170.60;48.63;;;7.60;80.20;;;;;;4888098;29;20033;-75
2020/12/18 03:52:43;;;;;;;169.43;50.60;;;7.60;80.30;;;;;;4872894;29;20252;-75
2020/12/18 03:55:09;;;;;;;177.43;52.47;;;7.60;80.40;;;;;;4885413;29;20182;-76
2020/12/18 03:57:34;;;;;;;166.32;51.45;;;7.70;80.30;;;;;;4892321;29;20013;-75
2020/12/18 04:00:00;;;;;;;169.95;51.97;;;7.70;80.40;;;;;;4891546;29;20036;-75
2020/12/18 04:02:26;;;;;;;186.13;50.60;;;7.70;81.10;;;;;;4891760;29;20021;-75
2020/12/18 04:04:52;;;;;;;194.40;57.90;;;7.60;80.90;;;;;;4892656;29;20092;-75
2020/12/18 04:07:17;;;;;;;186.40;53.65;;;7.40;81.40;;;;;;4892581;29;20278;-76
2020/12/18 04:09:43;;;;;;;195.32;52.92;;;7.60;81.40;;;;;;4892487;29;20024;-75
2020/12/18 04:12:11;;;;;;;191.73;53.63;;;7.60;81.40;;;;;;4892425;29;20025;-74
2020/12/18 04:14:37;;;;;;;182.38;51.17;;;7.60;81.20;;;;;;4892535;29;20017;-75
2020/12/18 04:17:03;;;;;;;182.70;53.88;;;7.70;81.10;;;;;;4892335;29;20032;-75
2020/12/18 04:19:29;;;;;;;209.85;55.67;;;7.70;81.00;;;;;;4892496;29;20080;-75
2020/12/18 04:21:56;;;;;;;261.70;63.28;;;7.70;81.10;;;;;;4892372;29;20052;-75
2020/12/18 04:24:21;;;;;;;217.85;56.28;;;7.60;81.40;;;;;;4891276;29;20193;-75
2020/12/18 04:26:48;;;;;;;229.90;60.03;;;7.60;81.80;;;;;;4891084;29;20027;-75
2020/12/18 04:29:14;;;;;;;223.25;55.97;;;7.70;81.70;;;;;;4892216;29;20025;-74
2020/12/18 04:31:40;;;;;;;227.82;58.58;;;7.60;81.50;;;;;;4891854;29;20044;-75
2020/12/18 04:34:06;;;;;;;242.40;59.65;;;7.70;81.50;;;;;;4906145;29;20245;-75
2020/12/18 04:36:32;;;;;;;254.63;60.20;;;7.70;81.50;;;;;;4906496;29;20024;-74
2020/12/18 04:38:58;;;;;;;248.45;57.42;;;7.70;81.50;;;;;;4906344;29;20033;-73
2020/12/18 04:41:25;;;;;;;249.85;59.05;;;7.80;81.50;;;;;;4891836;29;20032;-73
2020/12/18 04:43:51;;;;;;;227.52;60.22;;;7.80;81.50;;;;;;4891035;29;20065;-74
2020/12/18 04:46:18;;;;;;;265.30;62.08;;;7.80;81.40;;;;;;4909527;29;20044;-75
2020/12/18 04:48:46;;;;;;;335.85;62.55;;;7.70;81.60;;;;;;4929604;29;20028;-75
2020/12/18 04:51:25;;;;;;;266.02;63.15;;;7.70;81.70;;;;;;4929414;29;20024;-75
2020/12/18 04:53:53;;;;;;;322.73;63.85;;;7.70;81.50;;;;;;4929348;29;20304;-75
2020/12/18 04:56:24;;;;;;;269.35;59.97;;;7.80;81.40;;;;;;4928077;29;20024;-74
2020/12/18 04:58:54;;;;;;;268.23;60.22;;;7.80;81.40;;;;;;4929306;29;20242;-75
2020/12/18 05:01:23;;;;;;;313.42;66.97;;;7.70;81.80;;;;;;4929450;29;20024;-72
2020/12/18 05:03:49;;;;;;;353.58;69.72;;;7.70;81.90;;;;;;4929261;29;20122;-75
2020/12/18 05:06:15;;;;;;;386.25;70.35;;;7.70;82.20;;;;;;4929334;29;20083;-75
2020/12/18 05:08:43;;;;;;;258.97;58.77;;;7.70;83.00;;;;;;4928010;29;20055;-75
2020/12/18 05:11:35;;;;;;;288.02;63.80;;;7.60;83.00;;;;;;4929108;29;20016;-75
2020/12/18 05:14:00;;;;;;;323.17;63.85;;;7.60;83.20;;;;;;4852566;29;20096;-76
2020/12/18 05:16:26;;;;;;;390.08;71.43;;;7.70;83.40;;;;;;4852271;29;20355;-75
2020/12/18 05:18:52;;;;;;;400.70;75.50;;;7.70;82.70;;;;;;4852381;29;20210;-75
2020/12/18 05:21:18;;;;;;;451.55;73.63;;;7.70;82.50;;;;;;4852534;29;20205;-75
2020/12/18 05:23:45;;;;;;;251.20;56.80;;;7.70;82.60;;;;;;4835813;29;20068;-74
2020/12/18 05:26:13;;;;;;;364.70;70.07;;;7.80;82.60;;;;;;4852305;29;20271;-75
2020/12/18 05:28:43;;;;;;;441.25;73.75;;;7.70;82.60;;;;;;4852287;29;20360;-75
2020/12/18 05:31:16;;;;;;;491.67;78.93;;;7.70;82.70;;;;;;4852062;29;20030;-74
2020/12/18 05:33:43;;;;;;;429.35;73.38;;;7.70;82.90;;;;;;4836874;29;20064;-74
2020/12/18 05:36:09;;;;;;;318.75;67.50;;;7.70;83.00;;;;;;4852338;29;20129;-75
2020/12/18 05:38:37;;;;;;;430.40;75.90;;;7.70;83.00;;;;;;4852097;29;20040;-75
2020/12/18 05:41:04;;;;;;;333.27;67.28;;;7.70;83.00;;;;;;4836690;29;20021;-75
2020/12/18 05:43:41;;;;;;;378.33;71.97;;;7.70;83.10;;;;;;4851826;29;20067;-75
2020/12/18 05:46:17;;;;;;;306.25;63.13;;;7.70;83.40;;;;;;4851496;29;20045;-75
2020/12/18 05:48:44;;;;;;;439.30;77.07;;;7.70;83.60;;;;;;4851945;29;20065;-75
2020/12/18 05:51:24;;;;;;;;;;;7.80;83.30;;;;;;4889999;29;20035;-75
2020/12/18 05:54:05;;;;;;;310.50;62.70;;;7.80;83.30;;;;;;4909178;29;19974;-75
2020/12/18 05:56:33;;;;;;;290.13;63.22;;;7.80;83.10;;;;;;4908024;29;20227;-75
2020/12/18 05:59:14;;;;;;;480.92;80.70;;;7.80;83.00;;;;;;4911208;29;20035;-75
2020/12/18 06:01:42;;;;;;;488.98;73.95;;;7.80;84.00;;;;;;4927840;29;20008;-75
2020/12/18 06:04:15;;;;;;;493.08;82.95;;;7.80;83.30;;;;;;4941918;29;20016;-75
2020/12/18 06:06:43;;;;;;;524.83;82.15;;;7.70;83.80;;;;;;4927199;29;20016;-75
2020/12/18 06:09:10;;;;;;;482.05;82.03;;;7.60;84.40;;;;;;4927057;29;20377;-75
2020/12/18 06:11:37;;;;;;;469.30;80.72;;;7.50;85.20;;;;;;4926947;29;20016;-75
2020/12/18 06:14:04;;;;;;;420.65;77.60;;;7.60;84.60;;;;;;4926978;29;20095;-75
2020/12/18 06:16:31;;;;;;;417.80;69.25;;;7.70;84.50;;;;;;4926848;29;20259;-75
2020/12/18 06:19:07;;;;;;;340.00;73.05;;;7.80;84.00;;;;;;4926865;29;20027;-75
2020/12/18 06:21:33;;;;;;;280.63;62.50;;;7.80;83.80;;;;;;4927031;29;20016;-75
2020/12/18 06:23:59;;;;;;;336.77;65.55;;;7.80;83.60;;;;;;4927140;29;20012;-75
2020/12/18 06:26:26;;;;;;;413.98;74.43;;;7.80;83.60;;;;;;4927695;29;20016;-75
2020/12/18 06:28:53;;;;;;;365.27;69.63;;;7.70;84.00;;;;;;4927609;29;20028;-75
2020/12/18 06:31:24;;;;;;;506.17;87.83;;;7.70;84.10;;;;;;4927393;29;20020;-75
2020/12/18 06:33:52;;;;;;;382.27;73.72;;;7.80;84.10;;;;;;4926551;29;20284;-75
2020/12/18 06:36:19;;;;;;;590.63;91.20;;;7.80;84.00;;;;;;4926085;29;20119;-75
2020/12/18 06:38:46;;;;;;;512.15;84.82;;;7.90;83.80;;;;;;4927253;29;20020;-75
2020/12/18 06:41:25;;;;;;;402.95;78.07;;;7.90;83.60;;;;;;4926415;29;20028;-75
2020/12/18 06:43:51;;;;;;;298.38;67.07;;;7.90;83.70;;;;;;4927363;29;20016;-75
2020/12/18 06:46:20;;;;;;;287.00;62.65;;;7.90;83.60;;;;;;4925673;29;20054;-76
2020/12/18 06:48:50;;;;;;;270.55;60.65;;;7.90;83.40;;;;;;4926906;29;20031;-75
2020/12/18 06:51:27;;;;;;;232.60;56.03;;;7.90;83.10;;;;;;4927064;29;20020;-75
2020/12/18 06:54:11;;;;;;;221.63;51.20;;;7.70;83.80;;;;;;4926912;29;20024;-77
2020/12/18 06:56:37;;;;;;;215.75;50.53;;;7.80;84.00;;;;;;4927200;29;20263;-75
2020/12/18 06:59:19;;;;;;;181.95;48.28;;;7.80;83.70;;;;;;4926985;29;20020;-75
2020/12/18 07:01:47;;;;;;;179.52;45.90;;;7.80;83.80;;;;;;4927597;29;20012;-76
2020/12/18 07:04:21;;;;;;;179.10;48.13;;;7.80;83.50;;;;;;4927001;29;20016;-75
2020/12/18 07:06:47;;;;;;;177.88;46.88;;;7.80;83.40;;;;;;4925793;29;20024;-76
2020/12/18 07:09:15;;;;;;;190.13;46.88;;;7.80;83.40;;;;;;4927095;29;20028;-75
2020/12/18 07:11:41;;;;;;;142.93;43.15;;;7.80;83.40;;;;;;4925898;29;20312;-75
2020/12/18 07:14:15;;;;;;;136.67;41.67;;;7.80;83.10;;;;;;4925695;29;20027;-75
2020/12/18 07:16:51;;;;;;;136.32;40.42;;;7.80;82.80;;;;;;4934287;29;20099;-76
2020/12/18 07:19:17;;;;;;;;;;;7.80;82.80;;;;;;4946341;29;20092;-76
2020/12/18 07:21:43;;;;;;;140.13;39.70;;;7.90;82.80;;;;;;4960783;29;19903;-75
2020/12/18 07:24:10;;;;;;;138.02;40.03;;;7.80;82.80;;;;;;4945853;29;20079;-75
2020/12/18 07:26:35;;;;;;;125.15;39.72;;;7.90;82.70;;;;;;4944816;29;20020;-76
2020/12/18 07:29:01;;;;;;;123.88;41.08;;;7.90;82.50;;;;;;4941786;29;20091;-75
2020/12/18 07:31:27;;;;;;;110.85;35.95;;;7.90;82.20;;;;;;4926700;29;20239;-75
2020/12/18 07:33:58;;;;;;;126.65;40.35;;;8.00;82.10;;;;;;4926925;29;20308;-75
2020/12/18 07:36:26;;;;;;;114.07;37.80;;;7.90;82.00;;;;;;4926838;29;20071;-75
2020/12/18 07:38:57;;;;;;;112.82;37.40;;;8.00;82.10;;;;;;4913549;29;20343;-75
2020/12/18 07:41:23;;;;;;;118.97;40.28;;;8.00;81.90;;;;;;4932158;29;20016;-75
2020/12/18 07:43:48;;;;;;;111.00;37.65;;;8.00;81.70;;;;;;4926319;29;20306;-75
2020/12/18 07:46:19;;;;;;;107.50;37.75;;;8.00;81.90;;;;;;4926016;29;20032;-75
2020/12/18 07:48:47;;;;;;;109.88;37.15;;;8.00;81.90;;;;;;4924993;29;20036;-75
2020/12/18 07:51:19;;;;;;;99.05;34.75;;;8.10;81.70;;;;;;4926368;29;20302;-75
2020/12/18 07:53:55;;;;;;;105.05;35.78;;;8.10;81.40;;;;;;4926477;29;20022;-75
2020/12/18 07:56:24;;;;;;;98.60;33.55;;;8.10;81.30;;;;;;4938652;29;20020;-75
2020/12/18 07:58:54;;;;;;;107.32;37.42;;;8.20;81.20;;;;;;4926260;29;20020;-75
2020/12/18 08:01:21;;;;;;;93.53;35.47;;;8.20;80.90;;;;;;4924369;29;20079;-75
2020/12/18 08:03:56;;;;;;;98.15;36.80;;;8.20;81.30;;;;;;4925853;29;20039;-76
2020/12/18 08:06:26;;;;;;;103.13;36.25;;;8.30;80.50;;;;;;4924357;29;20012;-75
2020/12/18 08:08:54;;;;;;;98.95;37.03;;;8.30;81.10;;;;;;4925683;29;20357;-75
2020/12/18 08:11:21;;;;;;;110.13;37.47;;;8.20;80.40;;;;;;4926096;29;20027;-75
2020/12/18 08:13:47;;;;;;;107.45;38.60;;;8.20;80.20;;;;;;4925160;29;20024;-75
2020/12/18 08:16:21;;;;;;;106.55;37.65;;;8.10;80.70;;;;;;4940621;29;20327;-75
2020/12/18 08:18:49;;;;;;;99.18;36.00;;;8.20;80.80;;;;;;4928008;29;20020;-74
2020/12/18 08:21:18;;;;;;;106.93;36.20;;;8.20;80.70;;;;;;4929710;29;20030;-75
2020/12/18 08:23:47;;;;;;;116.90;37.15;;;8.10;80.80;;;;;;4929506;29;20028;-75
2020/12/18 08:26:14;;;;;;;98.60;33.90;;;8.10;80.50;;;;;;4929520;29;20036;-75
2020/12/18 08:28:41;;;;;;;92.53;36.17;;;8.00;80.80;;;;;;4928420;29;20020;-75
2020/12/18 08:31:09;;;;;;;89.53;34.45;;;8.10;80.90;;;;;;4929738;29;20028;-74
2020/12/18 08:33:49;;;;;;;96.85;35.30;;;8.20;80.60;;;;;;4922719;29;20477;-76
2020/12/18 08:36:16;;;;;;;108.00;37.42;;;8.20;80.90;;;;;;4909377;29;20063;-75
2020/12/18 08:38:57;;;;;;;108.00;37.70;;;8.30;80.50;;;;;;4912640;29;20091;-75
2020/12/18 08:41:23;;;;;;;115.20;38.67;;;8.20;80.30;;;;;;4929504;29;20252;-76
2020/12/18 08:43:48;;;;;;;95.88;37.75;;;8.20;80.50;;;;;;4928984;29;20095;-76
2020/12/18 08:46:14;;;;;;;92.00;35.03;;;8.20;80.50;;;;;;4928630;29;20032;-75
2020/12/18 08:48:40;;;;;;;92.07;34.63;;;8.30;80.40;;;;;;4928838;29;20334;-76
2020/12/18 08:51:08;;;;;;;102.72;36.88;;;8.30;80.20;;;;;;4928456;29;20024;-75
2020/12/18 08:53:35;;;;;;;114.60;37.70;;;8.40;80.10;;;;;;4929396;29;20044;-76
2020/12/18 08:56:06;;;;;;;91.90;33.85;;;8.40;80.00;;;;;;4929141;29;20312;-76
2020/12/18 08:58:33;;;;;;;82.13;34.75;;;8.50;79.50;;;;;;4929196;29;20273;-76
2020/12/18 09:01:00;;;;;;;83.53;32.97;;;8.40;79.50;;;;;;4935886;29;20023;-76
2020/12/18 09:03:26;;;;;;;79.88;31.98;;;8.50;79.70;;;;;;4948278;29;20024;-76
2020/12/18 09:05:52;;;;;;;83.00;32.90;;;8.50;79.20;;;;;;4947963;29;20054;-76
2020/12/18 09:08:21;;;;;;;73.57;30.73;;;8.60;79.30;;;;;;4947032;29;20019;-75
2020/12/18 09:10:56;;;;;;;70.10;28.75;;;8.50;78.60;;;;;;4946935;29;20043;-76
2020/12/18 09:13:23;;;;;;;81.60;33.25;;;8.50;78.70;;;;;;4948280;29;20330;-76
2020/12/18 09:15:50;;;;;;;76.18;31.80;;;8.60;78.70;;;;;;4932612;29;20035;-75
2020/12/18 09:18:25;;;;;;;69.07;30.27;;;8.70;78.80;;;;;;4909806;29;20024;-76
2020/12/18 09:20:52;;;;;;;68.15;28.52;;;8.70;78.00;;;;;;4909320;29;20028;-76
2020/12/18 09:23:31;;;;;;;60.58;28.10;;;8.50;77.10;;;;;;4908660;29;20211;-76
2020/12/18 09:25:59;;;;;;;64.53;27.45;;;8.30;77.90;;;;;;4920553;29;20060;-76
2020/12/18 09:28:25;;;;;;;53.53;25.83;;;8.30;78.50;;;;;;4917386;29;20260;-76
2020/12/18 09:30:57;;;;;;;52.15;23.98;;;8.40;78.20;;;;;;4927303;29;20024;-76
2020/12/18 09:33:26;;;;;;;53.03;23.42;;;8.40;77.70;;;;;;4937992;29;20021;-76
2020/12/18 09:36:08;;;;;;;47.28;23.52;;;8.30;77.70;;;;;;4909571;29;20087;-76
2020/12/18 09:38:34;;;;;;;55.90;25.88;;;8.30;77.10;;;;;;4909670;29;20044;-76
2020/12/18 09:41:02;;;;;;;53.65;25.73;;;8.30;77.40;;;;;;4909546;29;20092;-77
2020/12/18 09:43:28;;;;;;;49.95;23.83;;;8.30;77.00;;;;;;4909728;29;20055;-76
2020/12/18 09:45:55;;;;;;;57.05;24.48;;;8.30;77.30;;;;;;4914170;29;20260;-76
2020/12/18 09:48:21;;;;;;;52.35;25.08;;;8.20;77.50;;;;;;4928069;29;20091;-76
2020/12/18 09:50:55;;;;;;;54.57;25.20;;;8.20;77.60;;;;;;4928385;29;20062;-76
2020/12/18 09:53:21;;;;;;;52.67;23.85;;;8.30;77.70;;;;;;4927875;29;20027;-76
2020/12/18 09:55:47;;;;;;;50.28;23.58;;;8.20;77.40;;;;;;4923706;29;20027;-76
2020/12/18 09:58:13;;;;;;;53.75;24.15;;;8.20;77.50;;;;;;4936782;29;20028;-76
2020/12/18 10:00:39;;;;;;;47.67;23.88;;;8.20;77.30;;;;;;4926126;29;20260;-76
2020/12/18 10:03:05;;;;;;;52.90;24.67;;;8.30;77.60;;;;;;4927542;29;20023;-76
2020/12/18 10:05:30;;;;;;;45.75;24.15;;;8.30;77.20;;;;;;4927633;29;20303;-76
2020/12/18 10:07:56;;;;;;;51.25;25.05;;;8.20;77.10;;;;;;4925035;29;20031;-77
2020/12/18 10:10:22;;;;;;;46.65;24.63;;;8.40;77.50;;;;;;4942408;29;20032;-77
2020/12/18 10:12:47;;;;;;;50.13;25.65;;;8.60;77.00;;;;;;4928180;29;20083;-77
2020/12/18 10:15:13;;;;;;;56.65;27.30;;;8.60;76.70;;;;;;4926902;29;20024;-76
2020/12/18 10:17:39;;;;;;;51.85;26.00;;;8.60;76.50;;;;;;4941946;29;20024;-76
2020/12/18 10:20:06;;;;;;;49.70;25.20;;;8.70;76.20;;;;;;4946539;29;20042;-76
2020/12/18 10:22:32;;;;;;;54.93;26.90;;;8.70;76.00;;;;;;4946834;29;20042;-76
2020/12/18 10:24:57;;;;;;;54.85;26.63;;;8.70;75.90;;;;;;4946843;29;20260;-77
2020/12/18 10:27:23;;;;;;;52.90;24.92;;;8.80;75.80;;;;;;4937932;29;20022;-76
2020/12/18 10:29:49;;;;;;;52.92;25.88;;;8.80;75.70;;;;;;4917926;29;20042;-74
2020/12/18 10:32:14;;;;;;;51.88;26.10;;;8.90;75.70;;;;;;4927329;29;20135;-76
2020/12/18 10:34:40;;;;;;;45.72;23.42;;;8.90;75.40;;;;;;4942341;29;20027;-76
2020/12/18 10:37:06;;;;;;;47.72;24.48;;;8.90;75.70;;;;;;4927405;29;20087;-76
2020/12/18 10:39:32;;;;;;;50.42;25.50;;;8.80;74.80;;;;;;4927421;29;20024;-76
2020/12/18 10:41:59;;;;;;;57.20;27.10;;;8.90;75.20;;;;;;4926939;29;20128;-76
2020/12/18 10:44:24;;;;;;;62.58;27.42;;;8.90;75.20;;;;;;4927279;29;20020;-77
2020/12/18 10:46:50;;;;;;;56.88;26.17;;;8.80;75.30;;;;;;4926984;29;20228;-76
2020/12/18 10:49:17;;;;;;;61.05;28.25;;;8.70;75.40;;;;;;4927358;29;20028;-76
2020/12/18 10:51:43;;;;;;;;;;;8.70;75.50;;;;;;4926557;29;20032;-76
2020/12/18 10:54:10;;;;;;;59.30;27.38;;;8.70;75.30;;;;;;4927371;29;19903;-76
2020/12/18 10:56:44;;;;;;;62.70;28.73;;;8.60;75.50;;;;;;4927407;29;20024;-77
2020/12/18 10:59:10;;;;;;;62.80;29.92;;;8.50;76.40;;;;;;4927257;29;20024;-76
2020/12/18 11:01:37;;;;;;;67.10;29.45;;;8.60;76.30;;;;;;4927706;29;20016;-77
2020/12/18 11:04:03;;;;;;;63.20;31.03;;;8.60;76.20;;;;;;4927370;29;20024;-74
2020/12/18 11:06:29;;;;;;;67.43;29.65;;;8.70;75.90;;;;;;4922506;29;20027;-77
2020/12/18 11:08:55;;;;;;;62.25;28.52;;;8.60;75.90;;;;;;4926026;29;20207;-77
2020/12/18 11:11:20;;;;;;;61.63;28.98;;;8.60;76.20;;;;;;4926578;29;20019;-77
2020/12/18 11:13:46;;;;;;;63.42;28.75;;;8.70;76.00;;;;;;4941593;29;20024;-76
2020/12/18 11:16:12;;;;;;;66.05;29.30;;;8.40;75.90;;;;;;4928147;29;20016;-76
2020/12/18 11:18:38;;;;;;;64.65;30.40;;;8.40;76.70;;;;;;4924555;29;20233;-77
2020/12/18 11:21:04;;;;;;;63.17;29.02;;;8.50;76.80;;;;;;4916832;29;20055;-76
2020/12/18 11:23:31;;;;;;;71.35;31.77;;;8.30;77.50;;;;;;4926559;29;20023;-76
2020/12/18 11:25:57;;;;;;;;;;;8.50;77.00;;;;;;4927110;29;20024;-76
2020/12/18 11:28:23;;;;;;;68.77;30.37;;;8.60;77.00;;;;;;4939366;29;20197;-76
2020/12/18 11:30:49;;;;;;;67.07;29.20;;;8.60;76.20;;;;;;4925310;29;20034;-76
2020/12/18 11:33:15;;;;;;;69.97;30.92;;;8.60;76.40;;;;;;4918336;29;20036;-75
2020/12/18 11:35:42;;;;;;;73.95;32.28;;;8.50;76.60;;;;;;4925738;29;20051;-76
2020/12/18 11:38:07;;;;;;;68.32;29.88;;;8.50;76.90;;;;;;4940200;29;20028;-76
2020/12/18 11:40:33;;;;;;;73.85;32.03;;;8.20;77.20;;;;;;4925241;29;20035;-76
2020/12/18 11:42:59;;;;;;;69.82;30.70;;;8.20;77.40;;;;;;4925317;29;20200;-76
2020/12/18 11:45:25;;;;;;;77.60;33.10;;;8.20;77.30;;;;;;4925028;29;20024;-76
2020/12/18 11:47:50;;;;;;;70.18;31.02;;;8.40;77.30;;;;;;4925691;29;20028;-75
2020/12/18 11:50:17;;;;;;;66.13;29.70;;;8.50;76.80;;;;;;4925705;29;20028;-76
2020/12/18 11:52:42;;;;;;;74.90;31.23;;;8.60;76.70;;;;;;4927025;29;20067;-77
2020/12/18 11:55:08;;;;;;;69.07;29.13;;;8.60;76.10;;;;;;4928269;29;20251;-75
2020/12/18 11:57:34;;;;;;;63.45;29.10;;;8.60;76.30;;;;;;4929053;29;20263;-75
2020/12/18 11:59:59;;;;;;;62.42;29.10;;;8.60;76.20;;;;;;4933723;29;20030;-77
2020/12/18 12:02:25;;;;;;;63.70;30.17;;;8.60;76.10;;;;;;4930426;29;20024;-76
2020/12/18 12:04:50;;;;;;;62.42;29.73;;;8.50;75.90;;;;;;4929262;29;20016;-76
2020/12/18 12:07:16;;;;;;;59.22;27.00;;;8.50;76.60;;;;;;4929526;29;20063;-76
2020/12/18 12:09:41;;;;;;;60.55;28.75;;;8.60;76.30;;;;;;4926684;29;20031;-76
2020/12/18 12:12:11;;;;;;;55.65;27.63;;;8.70;76.10;;;;;;4929402;29;20022;-76
2020/12/18 12:14:37;;;;;;;56.40;28.27;;;8.70;75.70;;;;;;4910403;29;20316;-75
2020/12/18 12:17:03;;;;;;;60.03;28.30;;;8.60;75.50;;;;;;4920956;29;20048;-76
2020/12/18 12:19:30;;;;;;;63.47;27.58;;;8.40;76.00;;;;;;4924101;29;20110;-76
2020/12/18 12:21:56;;;;;;;55.20;26.58;;;8.50;76.50;;;;;;4914958;29;20019;-76
2020/12/18 12:24:22;;;;;;;55.77;26.10;;;8.50;76.00;;;;;;4936051;29;20127;-75
2020/12/18 12:26:48;;;;;;;57.65;26.05;;;8.40;75.90;;;;;;4945078;29;20075;-76
2020/12/18 12:29:14;;;;;;;55.47;26.73;;;8.40;76.30;;;;;;4957675;29;20115;-76
2020/12/18 12:31:40;;;;;;;52.88;25.45;;;8.40;76.00;;;;;;4947762;29;20023;-75
2020/12/18 12:34:05;;;;;;;49.45;25.15;;;8.40;75.90;;;;;;4946950;29;20031;-76
2020/12/18 12:36:31;;;;;;;47.95;24.02;;;8.40;75.90;;;;;;4947032;29;20032;-76
2020/12/18 12:38:57;;;;;;;56.63;26.52;;;8.40;76.00;;;;;;4929756;29;20055;-75
2020/12/18 12:41:24;;;;;;;56.88;27.98;;;8.40;76.40;;;;;;4928835;29;20080;-75
2020/12/18 12:43:50;;;;;;;53.05;25.10;;;8.40;76.30;;;;;;4928998;29;20016;-76
2020/12/18 12:46:15;;;;;;;58.35;26.95;;;8.40;76.20;;;;;;4921503;29;20044;-75
2020/12/18 12:48:41;;;;;;;60.13;26.58;;;8.40;76.30;;;;;;4929891;29;20039;-76
2020/12/18 12:51:07;;;;;;;53.88;26.10;;;8.50;76.20;;;;;;4942801;29;20016;-76
2020/12/18 12:53:32;;;;;;;48.88;25.13;;;8.50;76.30;;;;;;4935109;29;20031;-76
2020/12/18 12:55:58;;;;;;;53.65;25.88;;;8.40;76.00;;;;;;4947546;29;20031;-75
2020/12/18 12:58:23;;;;;;;49.53;24.73;;;8.30;76.30;;;;;;4933606;29;20056;-77
2020/12/18 13:00:49;;;;;;;63.55;27.98;;;8.40;76.50;;;;;;4934292;29;20058;-75
2020/12/18 13:03:15;;;;;;;53.38;24.17;;;8.20;76.10;;;;;;4933258;29;20055;-76
2020/12/18 13:05:44;;;;;;;52.13;25.65;;;8.20;76.80;;;;;;4928236;29;20068;-76
2020/12/18 13:08:10;;;;;;;54.63;25.60;;;8.20;76.90;;;;;;4925393;29;20027;-76
2020/12/18 13:10:40;;;;;;;53.63;25.17;;;8.20;76.70;;;;;;4928576;29;20055;-76
2020/12/18 13:13:07;;;;;;;51.38;25.70;;;8.20;76.90;;;;;;4929019;29;20020;-76
2020/12/18 13:15:33;;;;;;;54.05;26.75;;;8.30;76.80;;;;;;4929034;29;20031;-76
2020/12/18 13:17:59;;;;;;;52.72;26.33;;;8.30;76.60;;;;;;4927749;29;20099;-75
2020/12/18 13:20:24;;;;;;;54.28;25.10;;;8.30;76.60;;;;;;4928637;29;20024;-75
2020/12/18 13:22:50;;;;;;;54.55;26.58;;;8.30;76.80;;;;;;4928546;29;20185;-76
2020/12/18 13:25:24;;;;;;;54.03;26.48;;;8.30;76.80;;;;;;4925535;29;20031;-75
2020/12/18 13:27:51;;;;;;;59.25;26.08;;;8.20;77.00;;;;;;4927220;29;20027;-76
2020/12/18 13:30:17;;;;;;;;;;;8.30;77.10;;;;;;4928744;29;20091;-75
2020/12/18 13:32:43;;;;;;;53.92;25.60;;;8.30;76.60;;;;;;4928355;29;19903;-75
2020/12/18 13:35:09;;;;;;;60.72;26.98;;;8.30;76.50;;;;;;4928545;29;20030;-76
2020/12/18 13:37:35;;;;;;;64.20;27.75;;;8.30;76.60;;;;;;4928395;29;20028;-76
2020/12/18 13:40:01;;;;;;;58.60;27.73;;;8.20;77.00;;;;;;4943281;29;20131;-75
2020/12/18 13:42:27;;;;;;;58.58;27.00;;;8.00;77.30;;;;;;4927176;29;20326;-76
2020/12/18 13:44:53;;;;;;;62.17;27.58;;;8.10;77.30;;;;;;4928260;29;20024;-75
2020/12/18 13:47:19;;;;;;;57.65;26.98;;;8.10;77.60;;;;;;4922919;29;20052;-76
2020/12/18 13:49:45;;;;;;;71.32;27.35;;;8.10;77.60;;;;;;4942387;29;20039;-76
2020/12/18 13:52:11;;;;;;;69.32;30.10;;;8.20;77.60;;;;;;4928128;29;20020;-76
2020/12/18 13:54:36;;;;;;;70.95;29.98;;;8.10;77.50;;;;;;4920272;29;20038;-75
2020/12/18 13:57:03;;;;;;;86.03;32.53;;;8.10;77.60;;;;;;4927258;29;20067;-76
2020/12/18 13:59:29;;;;;;;69.10;29.35;;;8.20;77.60;;;;;;4926427;29;20020;-76
2020/12/18 14:01:59;;;;;;;93.40;31.42;;;8.20;77.90;;;;;;4928376;29;20232;-75
2020/12/18 14:04:24;;;;;;;87.40;31.85;;;8.00;78.10;;;;;;4926970;29;20295;-75
2020/12/18 14:06:58;;;;;;;79.95;32.40;;;8.00;78.50;;;;;;4927660;29;20025;-76
2020/12/18 14:09:23;;;;;;;77.55;31.10;;;8.00;78.60;;;;;;4927580;29;20043;-76
2020/12/18 14:11:49;;;;;;;75.65;32.17;;;8.00;78.50;;;;;;4927426;29;20023;-76
2020/12/18 14:14:15;;;;;;;75.78;30.23;;;8.00;78.50;;;;;;4942406;29;20024;-75
2020/12/18 14:16:41;;;;;;;87.95;32.58;;;7.80;79.00;;;;;;4934592;29;20118;-76
2020/12/18 14:19:07;;;;;;;84.80;31.95;;;7.70;79.80;;;;;;4945472;29;20207;-75
2020/12/18 14:21:32;;;;;;;85.32;32.25;;;7.80;79.70;;;;;;4946664;29;20019;-75
2020/12/18 14:23:58;;;;;;;87.20;32.35;;;7.80;79.60;;;;;;4945801;29;20043;-75
2020/12/18 14:26:24;;;;;;;96.07;34.80;;;7.70;80.40;;;;;;4928249;29;20402;-76
2020/12/18 14:28:49;;;;;;;88.88;31.65;;;7.60;80.80;;;;;;4927099;29;20606;-75
2020/12/18 14:31:18;;;;;;;101.22;33.38;;;7.70;80.70;;;;;;4927369;29;20020;-75
2020/12/18 14:33:44;;;;;;;87.47;31.35;;;7.80;80.60;;;;;;4927359;29;20024;-75
2020/12/18 14:36:10;;;;;;;93.90;33.00;;;7.80;80.50;;;;;;4927194;29;20295;-76
2020/12/18 14:38:35;;;;;;;111.35;35.17;;;7.80;80.50;;;;;;4927337;29;20307;-75
2020/12/18 14:41:01;;;;;;;101.40;34.13;;;7.90;80.40;;;;;;4927186;29;20024;-76
2020/12/18 14:43:29;;;;;;;108.95;34.05;;;7.90;80.40;;;;;;4927134;29;20020;-75
2020/12/18 14:46:02;;;;;;;117.72;37.72;;;7.90;80.30;;;;;;4926712;29;20048;-76
2020/12/18 14:48:28;;;;;;;127.10;36.88;;;7.80;80.80;;;;;;4923012;29;20402;-75
2020/12/18 14:50:54;;;;;;;126.70;35.65;;;7.90;80.70;;;;;;4931653;29;20021;-76
2020/12/18 14:53:20;;;;;;;95.70;33.03;;;7.90;80.70;;;;;;4926853;29;20315;-76
2020/12/18 14:55:46;;;;;;;108.00;37.13;;;7.90;80.70;;;;;;4938125;29;20312;-75
2020/12/18 14:58:11;;;;;;;116.50;36.75;;;7.90;80.70;;;;;;4943015;29;20024;-75
2020/12/18 15:00:37;;;;;;;107.70;34.95;;;7.90;80.70;;;;;;4944613;29;20058;-75
2020/12/18 15:03:03;;;;;;;108.15;33.33;;;7.90;80.70;;;;;;4945365;29;20027;-76
2020/12/18 15:05:29;;;;;;;101.85;34.17;;;7.80;81.20;;;;;;4945608;29;20020;-76
2020/12/18 15:07:54;;;;;;;114.30;34.58;;;7.70;81.50;;;;;;4932370;29;20126;-75
2020/12/18 15:10:20;;;;;;;99.65;31.30;;;7.70;81.50;;;;;;4925220;29;20099;-75
2020/12/18 15:12:46;;;;;;;107.82;32.72;;;7.80;81.40;;;;;;4926429;29;20028;-75
2020/12/18 15:15:11;;;;;;;114.57;33.22;;;7.80;81.30;;;;;;4926696;29;20228;-75
2020/12/18 15:17:38;;;;;;;110.55;35.22;;;7.70;81.60;;;;;;4925417;29;20067;-75
2020/12/18 15:20:05;;;;;;;126.38;38.10;;;7.70;81.90;;;;;;4936710;29;20023;-76
2020/12/18 15:22:31;;;;;;;;;;;7.60;82.30;;;;;;4906164;29;20228;-76
2020/12/18 15:24:57;;;;;;;125.37;35.97;;;7.70;82.30;;;;;;4907696;29;19911;-75
2020/12/18 15:27:22;;;;;;;117.32;33.88;;;7.70;82.30;;;;;;4926190;29;20343;-76
2020/12/18 15:29:48;;;;;;;147.15;39.35;;;7.70;83.00;;;;;;4907035;29;20024;-76
2020/12/18 15:32:14;;;;;;;127.65;36.45;;;7.70;82.30;;;;;;4905498;29;20056;-75
2020/12/18 15:34:40;;;;;;;129.27;38.10;;;7.80;82.30;;;;;;4907035;29;20064;-75
2020/12/18 15:37:06;;;;;;;125.68;37.22;;;7.80;82.20;;;;;;4907426;29;20032;-75
2020/12/18 15:39:33;;;;;;;152.07;40.83;;;7.70;82.40;;;;;;4914771;29;20047;-76
2020/12/18 15:41:59;;;;;;;;;;;7.70;82.60;;;;;;4945637;29;20024;-75
2020/12/18 15:44:25;;;;;;;148.68;37.70;;;7.50;83.30;;;;;;4932502;29;19903;-75
2020/12/18 15:46:51;;;;;;;138.18;38.35;;;7.40;83.70;;;;;;4925721;29;20056;-75
2020/12/18 15:49:17;;;;;;;135.33;36.60;;;7.40;83.60;;;;;;4924809;29;20024;-75
2020/12/18 15:51:43;;;;;;;117.55;34.03;;;7.40;83.80;;;;;;4926202;29;20264;-75
2020/12/18 15:54:09;;;;;;;106.88;31.10;;;7.40;83.90;;;;;;4926118;29;20314;-76
2020/12/18 15:56:35;;;;;;;123.63;32.65;;;7.20;84.00;;;;;;4924931;29;20086;-75
2020/12/18 15:59:01;;;;;;;105.60;31.25;;;7.20;84.40;;;;;;4924592;29;20016;-76
2020/12/18 16:01:27;;;;;;;101.80;30.10;;;7.20;84.20;;;;;;4925937;29;20024;-75
2020/12/18 16:03:53;;;;;;;113.07;30.90;;;7.20;84.30;;;;;;4925127;29;20016;-75
2020/12/18 16:06:19;;;;;;;97.97;29.60;;;7.20;84.00;;;;;;4926580;29;20359;-75
2020/12/18 16:08:45;;;;;;;92.17;27.83;;;7.20;84.00;;;;;;4927429;29;20020;-75
2020/12/18 16:11:12;;;;;;;78.72;26.23;;;7.20;83.90;;;;;;4926181;29;20566;-75
2020/12/18 16:13:38;;;;;;;84.65;26.30;;;7.10;84.00;;;;;;4943210;29;20023;-75
2020/12/18 16:16:04;;;;;;;72.60;26.20;;;7.10;84.00;;;;;;4941973;29;20355;-76
2020/12/18 16:18:31;;;;;;;73.22;23.23;;;7.10;84.20;;;;;;4925650;29;20126;-76
2020/12/18 16:20:57;;;;;;;124.63;45.17;;;7.10;84.00;;;;;;4924695;29;20040;-75
2020/12/18 16:23:23;;;;;;;108.57;42.60;;;7.00;83.80;;;;;;4924779;29;20112;-75